메인 페이지
METAR-TAF:

METAR-TAF

공항 :

시카고 오헤어 국제공항

시카고, 일리노이, 미국

위도: 41-58-47N, 경도: 087-54-16W, 고도: 203m

현재 날씨관측

예보는 18분 전, 13:51시(UTC)에 발표되었습니다.
14kt
온도 0°C
습도 74%
기압 1022 hPa
시정: 16.1km
고도 2300ft 상공 구름 많음

METAR: KORD 061351Z 36014KT 10SM BKN023 00/M04 A3019 RMK AO2 PK WND 35030/1312 SLP230 T00001039

시각: 08:09 (14:09 UTC)

예보

예보는 2 시간 48분 전, 11:21시(UTC)에 발표되었습니다.
예보 대상 시간: 06일 12시부터 07일 18시까지 (UTC)
14kt, 순간 최대 풍속 24kt
시정: 10km
고도 1300ft 상공 구름 보통
고도 2000ft 상공 구름 많음
일시적
06일 12시부터 06일 13시까지 (UTC)
고도 2000ft 상공 구름 보통
06일 1800시부터 (UTC)
10kt
시정: 10km
고도 2500ft 상공 구름 보통
07일 0000시부터 (UTC)
여러 방향의 바람 2kt
시정: 10km
고도 20000ft 상공 구름 조금
07일 1500시부터 (UTC)
남남서7kt
시정: 10km
고도 9000ft 상공 구름 보통

TAF: KORD 061121Z 0612/0718 35014G24KT P6SM SCT013 BKN020 TEMPO 0612/0613 SCT020 FM061800 01010KT P6SM SCT025 FM070000 VRB02KT P6SM FEW200 FM071500 20007KT P6SM SCT090

4,000개 이상의 공항 관측 자료 및 예보 (METAR 및 TAF 보고).

지도상에서 검색 가능한 기상관측소가 노란 점과 빨간 점으로 표시되어 있습니다.

기상관측소 명을 보려면 표시 위로 마우스를 이동하세요.

날씨 관측과 예보를 보려면 클릭하세요.

지도 변경 : 확대하려면 엑스 표시가 있는 녹색 버튼, 축소하려면 빼기 표시가 있는 녹색 버튼, 다음 페이지의 지도를 보려면 녹색 화살표를 클릭하세요.


METAR-TAF: